sensor_id;sensor_type;location;lat;lon;timestamp;temperature;humidity
36280;DHT22;22317;47.936;12.742;2023-12-04T00:01:19;-8.80;54.60
36280;DHT22;22317;47.936;12.742;2023-12-04T00:03:45;-8.80;54.70
36280;DHT22;22317;47.936;12.742;2023-12-04T00:06:12;-9.10;54.50
36280;DHT22;22317;47.936;12.742;2023-12-04T00:08:38;-8.90;54.60
36280;DHT22;22317;47.936;12.742;2023-12-04T00:11:07;-8.90;54.40
36280;DHT22;22317;47.936;12.742;2023-12-04T00:13:33;-8.80;54.60
36280;DHT22;22317;47.936;12.742;2023-12-04T00:16:00;-9.00;54.40
36280;DHT22;22317;47.936;12.742;2023-12-04T00:18:25;-9.00;54.40
36280;DHT22;22317;47.936;12.742;2023-12-04T00:20:51;-9.10;54.60
36280;DHT22;22317;47.936;12.742;2023-12-04T00:23:18;-9.10;54.50
36280;DHT22;22317;47.936;12.742;2023-12-04T00:25:43;-9.10;54.50
36280;DHT22;22317;47.936;12.742;2023-12-04T00:28:09;-9.10;54.50
36280;DHT22;22317;47.936;12.742;2023-12-04T00:30:35;-9.10;54.70
36280;DHT22;22317;47.936;12.742;2023-12-04T00:33:01;-9.10;54.60
36280;DHT22;22317;47.936;12.742;2023-12-04T00:35:26;-9.10;54.60
36280;DHT22;22317;47.936;12.742;2023-12-04T00:37:52;-9.20;54.70
36280;DHT22;22317;47.936;12.742;2023-12-04T00:40:17;-9.10;54.90
36280;DHT22;22317;47.936;12.742;2023-12-04T00:42:43;-9.10;54.90
36280;DHT22;22317;47.936;12.742;2023-12-04T00:45:09;-9.10;54.70
36280;DHT22;22317;47.936;12.742;2023-12-04T00:47:35;-9.10;54.50
36280;DHT22;22317;47.936;12.742;2023-12-04T00:50:00;-9.10;54.40
36280;DHT22;22317;47.936;12.742;2023-12-04T00:52:26;-9.20;54.20
36280;DHT22;22317;47.936;12.742;2023-12-04T00:54:52;-9.20;54.10
36280;DHT22;22317;47.936;12.742;2023-12-04T00:57:17;-9.20;54.10
36280;DHT22;22317;47.936;12.742;2023-12-04T00:59:43;-9.30;54.20
36280;DHT22;22317;47.936;12.742;2023-12-04T01:02:09;-9.30;54.30
36280;DHT22;22317;47.936;12.742;2023-12-04T01:04:34;-9.20;54.40
36280;DHT22;22317;47.936;12.742;2023-12-04T01:07:01;-9.20;54.60
36280;DHT22;22317;47.936;12.742;2023-12-04T01:09:27;-9.20;54.60
36280;DHT22;22317;47.936;12.742;2023-12-04T01:11:53;-9.20;54.60
36280;DHT22;22317;47.936;12.742;2023-12-04T01:14:20;-9.20;54.80
36280;DHT22;22317;47.936;12.742;2023-12-04T01:16:46;-9.20;54.90
36280;DHT22;22317;47.936;12.742;2023-12-04T01:19:12;-9.10;55.00
36280;DHT22;22317;47.936;12.742;2023-12-04T01:21:38;-8.20;55.60
36280;DHT22;22317;47.936;12.742;2023-12-04T01:24:04;-9.00;55.30
36280;DHT22;22317;47.936;12.742;2023-12-04T01:26:29;-9.00;55.30
36280;DHT22;22317;47.936;12.742;2023-12-04T01:28:55;-9.00;55.30
36280;DHT22;22317;47.936;12.742;2023-12-04T01:31:21;-9.00;55.90
36280;DHT22;22317;47.936;12.742;2023-12-04T01:33:47;-7.20;56.20
36280;DHT22;22317;47.936;12.742;2023-12-04T01:36:13;-9.00;55.70
36280;DHT22;22317;47.936;12.742;2023-12-04T01:38:38;-8.90;55.50
36280;DHT22;22317;47.936;12.742;2023-12-04T01:41:04;-8.90;55.60
36280;DHT22;22317;47.936;12.742;2023-12-04T01:43:30;-8.90;55.60
36280;DHT22;22317;47.936;12.742;2023-12-04T01:45:57;-8.90;55.50
36280;DHT22;22317;47.936;12.742;2023-12-04T01:48:24;-8.90;55.60
36280;DHT22;22317;47.936;12.742;2023-12-04T01:50:51;-8.90;55.50
36280;DHT22;22317;47.936;12.742;2023-12-04T01:53:17;-8.90;55.50
36280;DHT22;22317;47.936;12.742;2023-12-04T01:55:43;-8.90;55.40
36280;DHT22;22317;47.936;12.742;2023-12-04T01:58:10;-8.90;55.40
36280;DHT22;22317;47.936;12.742;2023-12-04T02:00:36;-8.90;55.60
36280;DHT22;22317;47.936;12.742;2023-12-04T02:03:02;-8.90;55.60
36280;DHT22;22317;47.936;12.742;2023-12-04T02:05:29;-8.90;55.60
36280;DHT22;22317;47.936;12.742;2023-12-04T02:07:55;-9.00;55.40
36280;DHT22;22317;47.936;12.742;2023-12-04T02:10:23;-9.00;55.40
36280;DHT22;22317;47.936;12.742;2023-12-04T02:12:50;-9.10;55.30
36280;DHT22;22317;47.936;12.742;2023-12-04T02:15:16;-9.10;55.50
36280;DHT22;22317;47.936;12.742;2023-12-04T02:17:43;-9.10;55.70
36280;DHT22;22317;47.936;12.742;2023-12-04T02:20:12;-9.20;56.30
36280;DHT22;22317;47.936;12.742;2023-12-04T02:22:38;-9.20;55.70
36280;DHT22;22317;47.936;12.742;2023-12-04T02:25:05;-9.20;55.50
36280;DHT22;22317;47.936;12.742;2023-12-04T02:27:49;-9.30;55.30
36280;DHT22;22317;47.936;12.742;2023-12-04T02:30:18;-9.30;55.30
36280;DHT22;22317;47.936;12.742;2023-12-04T02:32:46;-9.30;55.40
36280;DHT22;22317;47.936;12.742;2023-12-04T02:35:14;-9.30;55.50
36280;DHT22;22317;47.936;12.742;2023-12-04T02:37:42;-9.40;55.20
36280;DHT22;22317;47.936;12.742;2023-12-04T02:40:08;-9.40;54.90
36280;DHT22;22317;47.936;12.742;2023-12-04T02:42:35;-9.50;54.80
36280;DHT22;22317;47.936;12.742;2023-12-04T02:45:01;-9.60;54.60
36280;DHT22;22317;47.936;12.742;2023-12-04T02:47:27;-9.60;54.70
36280;DHT22;22317;47.936;12.742;2023-12-04T02:49:53;-9.70;54.80
36280;DHT22;22317;47.936;12.742;2023-12-04T02:52:18;-9.70;54.90
36280;DHT22;22317;47.936;12.742;2023-12-04T02:54:44;-9.80;54.90
36280;DHT22;22317;47.936;12.742;2023-12-04T02:57:10;-9.80;54.90
36280;DHT22;22317;47.936;12.742;2023-12-04T02:59:36;-9.80;54.70
36280;DHT22;22317;47.936;12.742;2023-12-04T03:02:01;-9.80;54.70
36280;DHT22;22317;47.936;12.742;2023-12-04T03:04:31;-9.80;54.80
36280;DHT22;22317;47.936;12.742;2023-12-04T03:06:57;-9.90;54.80
36280;DHT22;22317;47.936;12.742;2023-12-04T03:09:23;-9.90;54.50
36280;DHT22;22317;47.936;12.742;2023-12-04T03:11:49;-10.00;54.50
36280;DHT22;22317;47.936;12.742;2023-12-04T03:14:15;-10.00;54.40
36280;DHT22;22317;47.936;12.742;2023-12-04T03:16:40;-10.10;54.80
36280;DHT22;22317;47.936;12.742;2023-12-04T03:19:06;-10.10;54.60
36280;DHT22;22317;47.936;12.742;2023-12-04T03:21:32;-10.10;54.80
36280;DHT22;22317;47.936;12.742;2023-12-04T03:23:58;-10.10;54.40
36280;DHT22;22317;47.936;12.742;2023-12-04T03:26:23;-10.10;54.40
36280;DHT22;22317;47.936;12.742;2023-12-04T03:28:49;-10.10;55.00
36280;DHT22;22317;47.936;12.742;2023-12-04T03:31:15;-10.10;54.80
36280;DHT22;22317;47.936;12.742;2023-12-04T03:36:07;-10.10;54.20
36280;DHT22;22317;47.936;12.742;2023-12-04T03:38:33;-10.10;54.70
36280;DHT22;22317;47.936;12.742;2023-12-04T03:40:58;-10.10;54.60
36280;DHT22;22317;47.936;12.742;2023-12-04T03:43:24;-10.10;54.60
36280;DHT22;22317;47.936;12.742;2023-12-04T03:45:50;-10.10;54.10
36280;DHT22;22317;47.936;12.742;2023-12-04T03:48:15;-10.10;54.60
36280;DHT22;22317;47.936;12.742;2023-12-04T03:50:41;-10.10;54.50
36280;DHT22;22317;47.936;12.742;2023-12-04T03:53:08;-10.10;54.40
36280;DHT22;22317;47.936;12.742;2023-12-04T03:55:34;-10.10;54.50
36280;DHT22;22317;47.936;12.742;2023-12-04T03:57:59;-10.10;54.50
36280;DHT22;22317;47.936;12.742;2023-12-04T04:00:25;-10.10;54.50
36280;DHT22;22317;47.936;12.742;2023-12-04T04:02:51;-8.00;55.40
36280;DHT22;22317;47.936;12.742;2023-12-04T04:05:16;-10.20;54.30
36280;DHT22;22317;47.936;12.742;2023-12-04T04:07:42;-10.20;54.30
36280;DHT22;22317;47.936;12.742;2023-12-04T04:10:08;-10.20;54.80
36280;DHT22;22317;47.936;12.742;2023-12-04T04:12:34;-10.30;53.90
36280;DHT22;22317;47.936;12.742;2023-12-04T04:15:00;-10.30;54.00
36280;DHT22;22317;47.936;12.742;2023-12-04T04:17:26;-10.30;54.10
36280;DHT22;22317;47.936;12.742;2023-12-04T04:19:53;-10.40;54.10
36280;DHT22;22317;47.936;12.742;2023-12-04T04:22:22;-10.40;54.10
36280;DHT22;22317;47.936;12.742;2023-12-04T04:24:48;-10.40;54.20
36280;DHT22;22317;47.936;12.742;2023-12-04T04:27:14;-10.40;54.30
36280;DHT22;22317;47.936;12.742;2023-12-04T04:29:40;-10.40;54.30
36280;DHT22;22317;47.936;12.742;2023-12-04T04:32:06;-10.50;54.30
36280;DHT22;22317;47.936;12.742;2023-12-04T04:34:32;-10.50;54.30
36280;DHT22;22317;47.936;12.742;2023-12-04T04:36:57;-10.50;54.10
36280;DHT22;22317;47.936;12.742;2023-12-04T04:39:23;-10.50;54.20
36280;DHT22;22317;47.936;12.742;2023-12-04T04:41:49;-10.50;54.20
36280;DHT22;22317;47.936;12.742;2023-12-04T04:44:17;-8.30;55.80
36280;DHT22;22317;47.936;12.742;2023-12-04T04:46:43;-10.60;54.20
36280;DHT22;22317;47.936;12.742;2023-12-04T04:49:09;-10.60;54.50
36280;DHT22;22317;47.936;12.742;2023-12-04T04:51:35;-10.60;54.30
36280;DHT22;22317;47.936;12.742;2023-12-04T04:54:01;-9.60;55.40
36280;DHT22;22317;47.936;12.742;2023-12-04T04:56:32;-8.20;58.20
36280;DHT22;22317;47.936;12.742;2023-12-04T04:58:57;-8.40;55.20
36280;DHT22;22317;47.936;12.742;2023-12-04T05:01:23;-10.70;54.50
36280;DHT22;22317;47.936;12.742;2023-12-04T05:03:49;-8.80;55.70
36280;DHT22;22317;47.936;12.742;2023-12-04T05:06:15;-10.80;53.90
36280;DHT22;22317;47.936;12.742;2023-12-04T05:08:41;-10.80;55.00
36280;DHT22;22317;47.936;12.742;2023-12-04T05:11:07;-10.00;55.20
36280;DHT22;22317;47.936;12.742;2023-12-04T05:13:32;-10.80;54.30
36280;DHT22;22317;47.936;12.742;2023-12-04T05:15:58;-10.80;54.40
36280;DHT22;22317;47.936;12.742;2023-12-04T05:18:24;-10.80;54.50
36280;DHT22;22317;47.936;12.742;2023-12-04T05:20:50;-10.70;54.50
36280;DHT22;22317;47.936;12.742;2023-12-04T05:23:15;-10.70;54.50
36280;DHT22;22317;47.936;12.742;2023-12-04T05:25:41;-10.70;54.50
36280;DHT22;22317;47.936;12.742;2023-12-04T05:28:07;-10.70;54.40
36280;DHT22;22317;47.936;12.742;2023-12-04T05:30:32;-10.70;54.30
36280;DHT22;22317;47.936;12.742;2023-12-04T05:32:58;-9.40;54.90
36280;DHT22;22317;47.936;12.742;2023-12-04T05:35:24;-10.70;54.30
36280;DHT22;22317;47.936;12.742;2023-12-04T05:37:49;-10.70;54.30
36280;DHT22;22317;47.936;12.742;2023-12-04T05:40:15;-10.60;54.40
36280;DHT22;22317;47.936;12.742;2023-12-04T05:42:41;-10.70;54.40
36280;DHT22;22317;47.936;12.742;2023-12-04T05:45:07;-11.40;53.90
36280;DHT22;22317;47.936;12.742;2023-12-04T05:47:33;-10.60;54.30
36280;DHT22;22317;47.936;12.742;2023-12-04T05:50:01;-10.50;54.30
36280;DHT22;22317;47.936;12.742;2023-12-04T05:52:26;-8.20;55.20
36280;DHT22;22317;47.936;12.742;2023-12-04T05:54:52;-10.60;54.10
36280;DHT22;22317;47.936;12.742;2023-12-04T05:57:18;-10.60;54.30
36280;DHT22;22317;47.936;12.742;2023-12-04T05:59:44;-10.60;54.20
36280;DHT22;22317;47.936;12.742;2023-12-04T06:02:09;-10.60;53.90
36280;DHT22;22317;47.936;12.742;2023-12-04T06:04:35;-10.60;53.90
36280;DHT22;22317;47.936;12.742;2023-12-04T06:07:01;-8.60;55.10
36280;DHT22;22317;47.936;12.742;2023-12-04T06:09:27;-10.60;54.10
36280;DHT22;22317;47.936;12.742;2023-12-04T06:11:52;-10.60;54.10
36280;DHT22;22317;47.936;12.742;2023-12-04T06:14:18;-10.60;54.20
36280;DHT22;22317;47.936;12.742;2023-12-04T06:16:44;-10.60;54.30
36280;DHT22;22317;47.936;12.742;2023-12-04T06:19:09;-10.50;54.30
36280;DHT22;22317;47.936;12.742;2023-12-04T06:21:35;-10.50;54.40
36280;DHT22;22317;47.936;12.742;2023-12-04T06:24:01;-10.50;54.30
36280;DHT22;22317;47.936;12.742;2023-12-04T06:26:27;-10.50;54.20
36280;DHT22;22317;47.936;12.742;2023-12-04T06:28:53;-10.50;54.00
36280;DHT22;22317;47.936;12.742;2023-12-04T06:31:19;-10.50;54.00
36280;DHT22;22317;47.936;12.742;2023-12-04T06:33:45;-10.50;54.10
36280;DHT22;22317;47.936;12.742;2023-12-04T06:36:12;-10.50;54.10
36280;DHT22;22317;47.936;12.742;2023-12-04T06:38:40;-10.50;54.20
36280;DHT22;22317;47.936;12.742;2023-12-04T06:41:06;-10.50;54.20
36280;DHT22;22317;47.936;12.742;2023-12-04T06:43:33;-10.50;54.30
36280;DHT22;22317;47.936;12.742;2023-12-04T06:45:59;-10.50;54.30
36280;DHT22;22317;47.936;12.742;2023-12-04T06:48:25;-10.50;54.30
36280;DHT22;22317;47.936;12.742;2023-12-04T06:50:51;-8.70;55.20
36280;DHT22;22317;47.936;12.742;2023-12-04T06:53:16;-10.40;54.50
36280;DHT22;22317;47.936;12.742;2023-12-04T06:55:42;-10.30;54.50
36280;DHT22;22317;47.936;12.742;2023-12-04T06:58:08;-10.30;54.40
36280;DHT22;22317;47.936;12.742;2023-12-04T07:00:33;-10.20;54.50
36280;DHT22;22317;47.936;12.742;2023-12-04T07:02:59;-10.20;54.30
36280;DHT22;22317;47.936;12.742;2023-12-04T07:05:25;-10.30;54.00
36280;DHT22;22317;47.936;12.742;2023-12-04T07:07:51;-10.30;53.90
36280;DHT22;22317;47.936;12.742;2023-12-04T07:10:16;-8.30;55.20
36280;DHT22;22317;47.936;12.742;2023-12-04T07:12:43;-10.20;54.30
36280;DHT22;22317;47.936;12.742;2023-12-04T07:15:10;-10.20;54.40
36280;DHT22;22317;47.936;12.742;2023-12-04T07:17:37;-10.20;54.40
36280;DHT22;22317;47.936;12.742;2023-12-04T07:20:03;-10.10;54.50
36280;DHT22;22317;47.936;12.742;2023-12-04T07:22:32;-10.10;54.50
36280;DHT22;22317;47.936;12.742;2023-12-04T07:24:58;-10.00;54.60
36280;DHT22;22317;47.936;12.742;2023-12-04T07:27:24;-9.90;54.70
36280;DHT22;22317;47.936;12.742;2023-12-04T07:29:49;-9.10;55.20
36280;DHT22;22317;47.936;12.742;2023-12-04T07:32:15;-9.70;54.70
36280;DHT22;22317;47.936;12.742;2023-12-04T07:34:42;-9.60;54.90
36280;DHT22;22317;47.936;12.742;2023-12-04T07:37:08;-9.50;54.80
36280;DHT22;22317;47.936;12.742;2023-12-04T07:39:33;-9.40;54.50
36280;DHT22;22317;47.936;12.742;2023-12-04T07:41:59;-9.40;54.50
36280;DHT22;22317;47.936;12.742;2023-12-04T07:44:25;-9.30;54.80
36280;DHT22;22317;47.936;12.742;2023-12-04T07:46:51;-7.60;55.30
36280;DHT22;22317;47.936;12.742;2023-12-04T07:49:17;-9.20;54.40
36280;DHT22;22317;47.936;12.742;2023-12-04T07:51:42;-9.20;54.40
36280;DHT22;22317;47.936;12.742;2023-12-04T07:54:08;-9.10;55.00
36280;DHT22;22317;47.936;12.742;2023-12-04T07:56:34;-9.00;54.50
36280;DHT22;22317;47.936;12.742;2023-12-04T07:58:59;-6.90;55.50
36280;DHT22;22317;47.936;12.742;2023-12-04T08:01:25;-8.30;54.90
36280;DHT22;22317;47.936;12.742;2023-12-04T08:03:51;-8.80;54.70
36280;DHT22;22317;47.936;12.742;2023-12-04T08:06:16;-8.60;54.80
36280;DHT22;22317;47.936;12.742;2023-12-04T08:08:44;-8.50;54.90
36280;DHT22;22317;47.936;12.742;2023-12-04T08:11:11;-8.40;55.40
36280;DHT22;22317;47.936;12.742;2023-12-04T08:13:38;-8.20;54.90
36280;DHT22;22317;47.936;12.742;2023-12-04T08:16:05;-8.10;54.80
36280;DHT22;22317;47.936;12.742;2023-12-04T08:18:31;-8.00;54.90
36280;DHT22;22317;47.936;12.742;2023-12-04T08:21:00;-6.80;55.30
36280;DHT22;22317;47.936;12.742;2023-12-04T08:23:25;-7.70;54.60
36280;DHT22;22317;47.936;12.742;2023-12-04T08:25:51;-7.60;54.60
36280;DHT22;22317;47.936;12.742;2023-12-04T08:28:17;-6.60;54.90
36280;DHT22;22317;47.936;12.742;2023-12-04T08:30:42;-7.40;54.40
36280;DHT22;22317;47.936;12.742;2023-12-04T08:33:08;-7.30;54.30
36280;DHT22;22317;47.936;12.742;2023-12-04T08:35:34;-7.20;54.30
36280;DHT22;22317;47.936;12.742;2023-12-04T08:38:00;-7.20;54.20
36280;DHT22;22317;47.936;12.742;2023-12-04T08:40:25;-7.10;54.90
36280;DHT22;22317;47.936;12.742;2023-12-04T08:42:51;-7.00;54.20
36280;DHT22;22317;47.936;12.742;2023-12-04T08:45:17;-6.90;54.00
36280;DHT22;22317;47.936;12.742;2023-12-04T08:47:44;-6.80;53.90
36280;DHT22;22317;47.936;12.742;2023-12-04T08:50:10;-6.70;53.90
36280;DHT22;22317;47.936;12.742;2023-12-04T08:52:35;-6.60;54.10
36280;DHT22;22317;47.936;12.742;2023-12-04T08:55:01;-6.50;54.10
36280;DHT22;22317;47.936;12.742;2023-12-04T08:57:27;-4.60;55.00
36280;DHT22;22317;47.936;12.742;2023-12-04T08:59:53;-4.40;55.30
36280;DHT22;22317;47.936;12.742;2023-12-04T09:02:18;-6.10;54.30
36280;DHT22;22317;47.936;12.742;2023-12-04T09:04:44;-6.00;54.00
36280;DHT22;22317;47.936;12.742;2023-12-04T09:07:10;-5.90;54.00
36280;DHT22;22317;47.936;12.742;2023-12-04T09:09:36;-5.70;53.90
36280;DHT22;22317;47.936;12.742;2023-12-04T09:12:01;-5.60;54.20
36280;DHT22;22317;47.936;12.742;2023-12-04T09:14:27;-5.40;54.20
36280;DHT22;22317;47.936;12.742;2023-12-04T09:16:53;-4.90;54.30
36280;DHT22;22317;47.936;12.742;2023-12-04T09:19:19;-4.40;54.40
36280;DHT22;22317;47.936;12.742;2023-12-04T09:21:44;-4.70;54.00
36280;DHT22;22317;47.936;12.742;2023-12-04T09:24:10;-4.90;53.80
36280;DHT22;22317;47.936;12.742;2023-12-04T09:26:36;-4.80;53.80
36280;DHT22;22317;47.936;12.742;2023-12-04T09:29:02;-4.70;53.70
36280;DHT22;22317;47.936;12.742;2023-12-04T09:31:28;-4.60;53.80
36280;DHT22;22317;47.936;12.742;2023-12-04T09:33:53;-4.50;53.90
36280;DHT22;22317;47.936;12.742;2023-12-04T09:36:19;-4.30;54.20
36280;DHT22;22317;47.936;12.742;2023-12-04T09:38:45;-4.10;54.40
36280;DHT22;22317;47.936;12.742;2023-12-04T09:41:12;-2.10;55.50
36280;DHT22;22317;47.936;12.742;2023-12-04T09:43:38;-3.70;54.40
36280;DHT22;22317;47.936;12.742;2023-12-04T09:46:04;-1.70;55.40
36280;DHT22;22317;47.936;12.742;2023-12-04T09:48:31;-3.30;53.90
36280;DHT22;22317;47.936;12.742;2023-12-04T09:50:57;-4.60;52.90
36280;DHT22;22317;47.936;12.742;2023-12-04T09:53:24;-2.90;53.40
36280;DHT22;22317;47.936;12.742;2023-12-04T09:55:52;-3.00;53.00
36280;DHT22;22317;47.936;12.742;2023-12-04T09:58:25;-2.90;52.90
36280;DHT22;22317;47.936;12.742;2023-12-04T10:00:52;-2.70;53.00
36280;DHT22;22317;47.936;12.742;2023-12-04T10:03:20;-2.10;53.40
36280;DHT22;22317;47.936;12.742;2023-12-04T10:05:48;-2.60;53.40
36280;DHT22;22317;47.936;12.742;2023-12-04T10:08:14;-0.90;54.20
36280;DHT22;22317;47.936;12.742;2023-12-04T10:10:40;-2.40;53.00
36280;DHT22;22317;47.936;12.742;2023-12-04T10:13:05;-2.30;53.00
36280;DHT22;22317;47.936;12.742;2023-12-04T10:15:32;-0.50;53.90
36280;DHT22;22317;47.936;12.742;2023-12-04T10:17:58;-1.60;53.20
36280;DHT22;22317;47.936;12.742;2023-12-04T10:20:23;-1.00;53.20
36280;DHT22;22317;47.936;12.742;2023-12-04T10:22:58;-1.20;53.10
36280;DHT22;22317;47.936;12.742;2023-12-04T10:25:26;-1.50;52.70
36280;DHT22;22317;47.936;12.742;2023-12-04T10:27:53;-1.40;52.50
36280;DHT22;22317;47.936;12.742;2023-12-04T10:30:27;-1.30;52.20
36280;DHT22;22317;47.936;12.742;2023-12-04T10:33:04;-1.20;52.20
36280;DHT22;22317;47.936;12.742;2023-12-04T10:35:31;-1.10;52.00
36280;DHT22;22317;47.936;12.742;2023-12-04T10:37:58;-1.10;51.60
36280;DHT22;22317;47.936;12.742;2023-12-04T10:40:29;0.50;52.40
36280;DHT22;22317;47.936;12.742;2023-12-04T10:45:40;0.40;52.20
36280;DHT22;22317;47.936;12.742;2023-12-04T10:48:07;-0.90;51.60
36280;DHT22;22317;47.936;12.742;2023-12-04T10:50:37;-0.40;51.70
36280;DHT22;22317;47.936;12.742;2023-12-04T10:53:04;-0.70;51.40
36280;DHT22;22317;47.936;12.742;2023-12-04T10:55:31;-0.40;51.20
36280;DHT22;22317;47.936;12.742;2023-12-04T10:57:57;-0.70;50.80
36280;DHT22;22317;47.936;12.742;2023-12-04T11:00:25;-0.70;50.90
36280;DHT22;22317;47.936;12.742;2023-12-04T11:02:55;0.20;51.30
36280;DHT22;22317;47.936;12.742;2023-12-04T11:05:23;0.90;51.60
36280;DHT22;22317;47.936;12.742;2023-12-04T11:08:01;1.20;51.90
36280;DHT22;22317;47.936;12.742;2023-12-04T11:10:29;-0.40;51.50
36280;DHT22;22317;47.936;12.742;2023-12-04T11:13:28;-0.30;51.00
36280;DHT22;22317;47.936;12.742;2023-12-04T11:16:02;-0.20;50.60
36280;DHT22;22317;47.936;12.742;2023-12-04T11:18:31;-0.10;50.50
36280;DHT22;22317;47.936;12.742;2023-12-04T11:20:59;1.10;50.90
36280;DHT22;22317;47.936;12.742;2023-12-04T11:23:28;0.00;50.30
36280;DHT22;22317;47.936;12.742;2023-12-04T11:25:55;0.00;50.30
36280;DHT22;22317;47.936;12.742;2023-12-04T11:28:21;0.40;50.50
36280;DHT22;22317;47.936;12.742;2023-12-04T11:30:47;0.10;50.10
36280;DHT22;22317;47.936;12.742;2023-12-04T11:33:15;1.00;50.30
36280;DHT22;22317;47.936;12.742;2023-12-04T11:35:41;0.00;49.50
36280;DHT22;22317;47.936;12.742;2023-12-04T11:38:06;0.00;49.70
36280;DHT22;22317;47.936;12.742;2023-12-04T11:40:35;0.00;49.70
36280;DHT22;22317;47.936;12.742;2023-12-04T11:43:28;1.10;50.00
36280;DHT22;22317;47.936;12.742;2023-12-04T11:46:08;0.00;49.40
36280;DHT22;22317;47.936;12.742;2023-12-04T11:48:36;0.80;49.80
36280;DHT22;22317;47.936;12.742;2023-12-04T11:51:01;0.60;49.80
36280;DHT22;22317;47.936;12.742;2023-12-04T11:53:27;-0.20;49.30
36280;DHT22;22317;47.936;12.742;2023-12-04T11:55:55;1.60;50.10
36280;DHT22;22317;47.936;12.742;2023-12-04T11:58:22;-0.30;49.10
36280;DHT22;22317;47.936;12.742;2023-12-04T12:00:48;2.00;50.00
36280;DHT22;22317;47.936;12.742;2023-12-04T12:03:15;-0.50;48.60
36280;DHT22;22317;47.936;12.742;2023-12-04T12:05:41;-0.70;48.40
36280;DHT22;22317;47.936;12.742;2023-12-04T12:08:08;0.30;49.20
36280;DHT22;22317;47.936;12.742;2023-12-04T12:10:34;-0.90;48.90
36280;DHT22;22317;47.936;12.742;2023-12-04T12:13:00;-1.00;48.90
36280;DHT22;22317;47.936;12.742;2023-12-04T12:15:27;-0.90;49.30
36280;DHT22;22317;47.936;12.742;2023-12-04T12:17:53;-1.10;49.30
36280;DHT22;22317;47.936;12.742;2023-12-04T12:20:19;0.20;50.20
36280;DHT22;22317;47.936;12.742;2023-12-04T12:22:48;-1.20;50.30
36280;DHT22;22317;47.936;12.742;2023-12-04T12:25:15;-1.20;49.80
36280;DHT22;22317;47.936;12.742;2023-12-04T12:27:41;-1.20;49.80
36280;DHT22;22317;47.936;12.742;2023-12-04T12:30:08;-1.30;49.90
36280;DHT22;22317;47.936;12.742;2023-12-04T12:32:34;0.90;51.10
36280;DHT22;22317;47.936;12.742;2023-12-04T12:35:01;-1.20;50.10
36280;DHT22;22317;47.936;12.742;2023-12-04T12:37:26;-1.20;49.90
36280;DHT22;22317;47.936;12.742;2023-12-04T12:39:53;-0.20;50.20
36280;DHT22;22317;47.936;12.742;2023-12-04T12:42:25;-1.30;49.40
36280;DHT22;22317;47.936;12.742;2023-12-04T12:44:52;-1.40;49.80
36280;DHT22;22317;47.936;12.742;2023-12-04T12:47:18;0.10;50.70
36280;DHT22;22317;47.936;12.742;2023-12-04T12:49:49;-1.50;50.10
36280;DHT22;22317;47.936;12.742;2023-12-04T12:52:15;-0.50;50.60
36280;DHT22;22317;47.936;12.742;2023-12-04T12:54:42;0.10;51.10
36280;DHT22;22317;47.936;12.742;2023-12-04T12:57:08;-0.80;50.70
36280;DHT22;22317;47.936;12.742;2023-12-04T12:59:35;-1.40;50.30
36280;DHT22;22317;47.936;12.742;2023-12-04T13:02:01;-1.40;50.20
36280;DHT22;22317;47.936;12.742;2023-12-04T13:04:37;-1.40;50.20
36280;DHT22;22317;47.936;12.742;2023-12-04T13:07:03;-1.40;50.50
36280;DHT22;22317;47.936;12.742;2023-12-04T13:09:30;-1.40;50.60
36280;DHT22;22317;47.936;12.742;2023-12-04T13:11:55;-1.40;50.70
36280;DHT22;22317;47.936;12.742;2023-12-04T13:14:21;-1.40;50.50
36280;DHT22;22317;47.936;12.742;2023-12-04T13:16:47;0.70;51.50
36280;DHT22;22317;47.936;12.742;2023-12-04T13:19:13;-0.10;51.10
36280;DHT22;22317;47.936;12.742;2023-12-04T13:21:38;-1.30;50.50
36280;DHT22;22317;47.936;12.742;2023-12-04T13:24:04;-0.30;51.10
36280;DHT22;22317;47.936;12.742;2023-12-04T13:26:33;-1.30;50.70
36280;DHT22;22317;47.936;12.742;2023-12-04T13:28:59;0.00;51.30
36280;DHT22;22317;47.936;12.742;2023-12-04T13:31:25;-0.40;51.10
36280;DHT22;22317;47.936;12.742;2023-12-04T13:33:50;-1.30;50.50
36280;DHT22;22317;47.936;12.742;2023-12-04T13:36:17;-1.30;50.80
36280;DHT22;22317;47.936;12.742;2023-12-04T13:38:43;0.90;51.90
36280;DHT22;22317;47.936;12.742;2023-12-04T13:41:09;-1.30;51.00
36280;DHT22;22317;47.936;12.742;2023-12-04T13:43:54;-1.30;51.10
36280;DHT22;22317;47.936;12.742;2023-12-04T13:46:21;-1.20;51.10
36280;DHT22;22317;47.936;12.742;2023-12-04T13:48:48;-0.40;51.70
36280;DHT22;22317;47.936;12.742;2023-12-04T13:51:14;-0.90;51.40
36280;DHT22;22317;47.936;12.742;2023-12-04T13:53:40;0.50;52.10
36280;DHT22;22317;47.936;12.742;2023-12-04T13:56:11;-0.70;51.30
36280;DHT22;22317;47.936;12.742;2023-12-04T13:58:48;-0.60;51.20
36280;DHT22;22317;47.936;12.742;2023-12-04T14:01:22;-0.50;51.30
36280;DHT22;22317;47.936;12.742;2023-12-04T14:03:49;-0.30;51.70
36280;DHT22;22317;47.936;12.742;2023-12-04T14:06:15;0.80;54.80
36280;DHT22;22317;47.936;12.742;2023-12-04T14:08:50;2.10;53.90
36280;DHT22;22317;47.936;12.742;2023-12-04T14:11:16;2.60;51.50
36280;DHT22;22317;47.936;12.742;2023-12-04T14:13:43;3.00;50.90
36280;DHT22;22317;47.936;12.742;2023-12-04T14:16:09;3.80;51.80
36280;DHT22;22317;47.936;12.742;2023-12-04T14:18:35;4.60;50.60
36280;DHT22;22317;47.936;12.742;2023-12-04T14:21:01;5.00;49.10
36280;DHT22;22317;47.936;12.742;2023-12-04T14:23:27;5.00;47.10
36280;DHT22;22317;47.936;12.742;2023-12-04T14:25:53;4.70;45.70
36280;DHT22;22317;47.936;12.742;2023-12-04T14:28:18;4.30;44.90
36280;DHT22;22317;47.936;12.742;2023-12-04T14:30:45;3.80;44.60
36280;DHT22;22317;47.936;12.742;2023-12-04T14:33:11;3.30;44.50
36280;DHT22;22317;47.936;12.742;2023-12-04T14:35:37;2.80;44.30
36280;DHT22;22317;47.936;12.742;2023-12-04T14:38:06;2.50;44.50
36280;DHT22;22317;47.936;12.742;2023-12-04T14:40:32;2.00;44.70
36280;DHT22;22317;47.936;12.742;2023-12-04T14:42:57;1.70;45.00
36280;DHT22;22317;47.936;12.742;2023-12-04T14:45:23;1.40;45.20
36280;DHT22;22317;47.936;12.742;2023-12-04T14:47:49;1.00;45.40
36280;DHT22;22317;47.936;12.742;2023-12-04T14:50:17;0.70;45.60
36280;DHT22;22317;47.936;12.742;2023-12-04T14:52:43;0.50;45.80
36280;DHT22;22317;47.936;12.742;2023-12-04T14:55:16;0.30;46.00
36280;DHT22;22317;47.936;12.742;2023-12-04T14:57:44;0.00;46.30
36280;DHT22;22317;47.936;12.742;2023-12-04T15:00:16;-0.30;46.30
36280;DHT22;22317;47.936;12.742;2023-12-04T15:02:45;-0.50;46.60
36280;DHT22;22317;47.936;12.742;2023-12-04T15:05:29;-0.70;46.80
36280;DHT22;22317;47.936;12.742;2023-12-04T15:08:04;-0.90;46.90
36280;DHT22;22317;47.936;12.742;2023-12-04T15:10:30;-1.10;47.20
36280;DHT22;22317;47.936;12.742;2023-12-04T15:13:14;-1.30;47.10
36280;DHT22;22317;47.936;12.742;2023-12-04T15:15:59;-1.50;47.30
36280;DHT22;22317;47.936;12.742;2023-12-04T15:18:27;-1.70;47.50